Time;durP1;ratioP1;P1;durP2;ratioP2;P2;SDS_P1;SDS_P2;PMS_P1;PMS_P2;Temp;Humidity;BMP_temperature;BMP_pressure;BME280_temperature;BME280_humidity;BME280_pressure;Samples;Min_cycle;Max_cycle;Signal;HPM_P1;HPM_P2
2022/06/03 00:00:57;;;;;;;10.53;4.67;;;;;;;18.49;76.02;101021.41;1933538;74;21034;-61
2022/06/03 00:03:46;;;;;;;13.35;4.40;;;;;;;18.47;75.96;101020.17;1851640;76;21481;-61
2022/06/03 00:06:27;;;;;;;10.90;4.25;;;;;;;18.44;75.84;101029.73;1917463;74;21190;-61
2022/06/03 00:09:12;;;;;;;11.75;5.03;;;;;;;18.41;75.79;101028.59;1934294;74;21009;-61
2022/06/03 00:12:18;;;;;;;17.60;4.97;;;;;;;18.36;75.56;101029.38;1934328;74;21030;-61
2022/06/03 00:15:17;;;;;;;7.70;4.33;;;;;;;18.28;75.80;101026.39;1933378;74;21558;-61
2022/06/03 00:18:07;;;;;;;13.28;6.35;;;;;;;18.23;76.14;101023.17;1934069;74;21038;-61
2022/06/03 00:20:50;;;;;;;10.55;6.28;;;;;;;18.16;76.61;101019.20;1934475;74;21038;-61
2022/06/03 00:23:34;;;;;;;19.20;5.03;;;;;;;18.08;77.43;101017.90;1934614;74;21073;-61
2022/06/03 00:26:32;;;;;;;10.20;4.65;;;;;;;18.02;77.96;101014.31;1879900;75;21118;-61
2022/06/03 00:29:10;;;;;;;13.38;5.20;;;;;;;18.01;77.84;101021.92;1882238;76;21078;-61
2022/06/03 00:31:59;;;;;;;14.35;4.95;;;;;;;17.97;78.17;101015.09;1882710;76;21125;-61
2022/06/03 00:34:56;;;;;;;8.88;5.20;;;;;;;17.93;78.32;101021.58;1883576;76;21027;-61
2022/06/03 00:37:56;;;;;;;8.33;5.08;;;;;;;17.91;78.12;101027.00;1881130;76;21455;-62
2022/06/03 00:40:31;;;;;;;10.65;5.15;;;;;;;17.92;77.76;101018.53;1868642;76;21477;-61
2022/06/03 00:43:05;;;;;;;12.18;5.45;;;;;;;17.85;78.43;101019.39;1883525;76;21434;-61
2022/06/03 00:45:55;;;;;;;10.53;5.17;;;;;;;17.83;78.63;101027.94;1881668;76;21036;-62
2022/06/03 00:48:39;;;;;;;13.28;5.12;;;;;;;17.85;78.56;101042.03;1882921;76;21078;-61
2022/06/03 00:51:24;;;;;;;;;;;;;;;17.88;78.05;101043.66;1886329;75;21119;-61
2022/06/03 00:54:16;;;;;;;14.58;5.22;;;;;;;17.87;77.86;101042.81;1889432;75;20108;-63
2022/06/03 00:57:06;;;;;;;11.28;4.72;;;;;;;17.85;77.71;101035.86;1889944;76;21547;-63
2022/06/03 00:59:56;;;;;;;9.78;6.00;;;;;;;17.81;78.24;101037.83;1880963;75;21480;-63
2022/06/03 01:02:40;;;;;;;12.05;6.03;;;;;;;17.77;78.59;101035.48;1888211;76;21480;-63
2022/06/03 01:05:27;;;;;;;18.42;5.20;;;;;;;17.74;78.90;101033.86;1892514;75;21041;-63
2022/06/03 01:08:15;;;;;;;10.68;5.53;;;;;;;17.72;79.28;101028.66;1892040;75;21033;-63
2022/06/03 01:10:56;;;;;;;11.73;4.83;;;;;;;17.72;79.21;101030.44;1891902;76;21206;-63
2022/06/03 01:13:49;;;;;;;10.00;4.35;;;;;;;17.73;78.80;101036.16;1895573;75;21096;-64
2022/06/03 01:16:40;;;;;;;11.88;5.05;;;;;;;17.69;78.76;101034.16;1899932;75;21049;-61
2022/06/03 01:19:14;;;;;;;12.00;5.30;;;;;;;17.63;79.28;101031.03;1900091;75;21480;-62
2022/06/03 01:21:52;;;;;;;11.40;5.20;;;;;;;17.57;79.44;101030.95;1900749;75;21115;-62
2022/06/03 01:24:52;;;;;;;14.13;5.40;;;;;;;17.53;79.49;101041.42;1904698;74;21493;-63
2022/06/03 01:27:26;;;;;;;22.20;7.37;;;;;;;17.50;79.41;101036.28;1940813;73;21037;-62
2022/06/03 01:30:16;;;;;;;19.73;7.28;;;;;;;17.52;79.00;101033.04;1931067;74;21151;-61
2022/06/03 01:33:10;;;;;;;14.98;5.72;;;;;;;17.53;78.93;101032.10;1930987;74;21535;-62
2022/06/03 01:35:45;;;;;;;;;;;;;;;17.51;78.77;101034.02;1933933;74;21469;-63
2022/06/03 01:38:23;;;;;;;11.08;4.05;;;;;;;17.47;78.64;101031.17;1929971;74;20190;-63
2022/06/03 01:41:14;;;;;;;15.30;6.40;;;;;;;17.44;78.59;101030.88;1931252;74;21006;-61
2022/06/03 01:44:15;;;;;;;12.15;4.45;;;;;;;17.40;78.95;101033.36;1930954;74;21541;-62
2022/06/03 01:47:08;;;;;;;19.65;6.12;;;;;;;17.37;79.36;101042.85;1931175;74;21030;-65
2022/06/03 01:49:59;;;;;;;17.80;4.83;;;;;;;17.29;80.04;101044.67;1898131;75;21009;-62
2022/06/03 01:52:37;;;;;;;15.55;4.85;;;;;;;17.23;79.85;101046.39;1894563;75;21113;-60
2022/06/03 01:55:42;;;;;;;16.73;5.83;;;;;;;17.25;79.54;101043.16;1897973;75;21146;-60
2022/06/03 01:58:22;;;;;;;13.43;6.30;;;;;;;17.32;79.33;101043.16;1873985;76;21058;-63
2022/06/03 02:01:16;;;;;;;12.25;6.58;;;;;;;17.35;79.06;101045.64;1874035;76;21527;-62
2022/06/03 02:04:08;;;;;;;15.85;5.30;;;;;;;17.34;79.29;101046.58;1891320;75;21149;-64
2022/06/03 02:07:14;;;;;;;21.70;4.97;;;;;;;17.30;79.75;101047.72;1897003;75;21475;-63
2022/06/03 02:09:52;;;;;;;8.03;4.42;;;;;;;17.31;79.78;101049.42;1897845;75;21030;-63
2022/06/03 02:12:35;;;;;;;16.15;5.58;;;;;;;17.41;79.45;101046.18;1896235;75;21100;-63
2022/06/03 02:15:36;;;;;;;10.53;4.87;;;;;;;17.51;79.29;101045.98;1898018;75;21083;-63
2022/06/03 02:18:13;;;;;;;13.62;4.47;;;;;;;17.58;79.00;101047.77;1897879;75;21554;-63
2022/06/03 02:20:56;;;;;;;16.60;5.03;;;;;;;17.57;78.88;101050.91;1897801;75;21091;-64
2022/06/03 02:23:34;;;;;;;9.75;5.00;;;;;;;17.55;78.96;101044.84;1897913;75;21093;-65
2022/06/03 02:26:18;;;;;;;12.03;5.25;;;;;;;17.56;78.75;101043.90;1882237;75;21501;-64
2022/06/03 02:32:03;;;;;;;9.95;5.15;;;;;;;17.54;78.74;101039.16;1865096;77;20148;-62
2022/06/03 02:34:51;;;;;;;10.23;4.55;;;;;;;17.51;78.58;101045.98;1865288;76;21120;-61
2022/06/03 02:37:34;;;;;;;16.65;4.67;;;;;;;17.49;78.50;101047.41;1865207;77;21199;-61
2022/06/03 02:40:18;;;;;;;9.98;4.85;;;;;;;17.44;78.77;101059.30;1864417;76;21159;-62
2022/06/03 02:42:47;;;;;;;;;;;;;;;17.36;78.62;101047.33;1867527;76;21120;-62
2022/06/03 02:45:21;;;;;;;13.18;5.08;;;;;;;17.39;78.73;101052.92;1865239;77;20125;-62
2022/06/03 02:48:05;;;;;;;16.20;6.40;;;;;;;17.42;78.85;101064.72;1851246;77;21047;-61
2022/06/03 02:50:42;;;;;;;16.25;5.45;;;;;;;17.46;78.59;101062.72;1864655;77;21109;-63
2022/06/03 02:53:47;;;;;;;11.38;5.50;;;;;;;17.46;78.63;101058.73;1865220;76;21034;-62
2022/06/03 02:56:30;;;;;;;11.78;5.30;;;;;;;17.48;78.59;101060.81;1865306;77;21136;-62
2022/06/03 02:59:31;;;;;;;19.02;5.78;;;;;;;17.49;78.72;101055.89;1864403;76;21477;-62
2022/06/03 03:02:24;;;;;;;13.32;4.35;;;;;;;17.52;78.65;101068.53;1865202;77;21038;-62
2022/06/03 03:05:27;;;;;;;12.73;5.03;;;;;;;17.54;78.49;101077.75;1864464;77;21124;-64
2022/06/03 03:08:04;;;;;;;11.10;4.47;;;;;;;17.53;78.87;101076.88;1865430;77;21034;-61
2022/06/03 03:10:45;;;;;;;12.70;5.10;;;;;;;17.53;78.84;101076.88;1865246;77;21042;-61
2022/06/03 03:13:33;;;;;;;9.30;5.03;;;;;;;17.59;78.83;101083.63;1865230;76;21042;-61
2022/06/03 03:16:25;;;;;;;12.20;4.42;;;;;;;17.62;78.76;101086.59;1865319;77;21112;-62
2022/06/03 03:19:13;;;;;;;17.32;5.60;;;;;;;17.64;78.57;101097.51;1840455;77;21147;-61
2022/06/03 03:21:54;;;;;;;13.93;4.97;;;;;;;17.68;78.60;101096.84;1833363;78;21489;-57
2022/06/03 03:24:31;;;;;;;15.00;5.42;;;;;;;17.71;78.53;101094.84;1834027;77;21104;-66
2022/06/03 03:27:29;;;;;;;15.00;5.12;;;;;;;17.73;78.62;101099.59;1857675;77;21089;-60
2022/06/03 03:30:15;;;;;;;11.43;5.47;;;;;;;17.78;78.46;101096.65;1851395;76;21151;-61
2022/06/03 03:32:47;;;;;;;16.67;6.28;;;;;;;17.85;78.32;101091.80;1869737;76;21057;-61
2022/06/03 03:35:22;;;;;;;9.98;5.37;;;;;;;17.92;78.08;101083.80;1876338;76;21115;-61
2022/06/03 03:38:28;;;;;;;9.85;4.85;;;;;;;17.96;78.02;101081.30;1877369;76;21115;-61
2022/06/03 03:41:08;;;;;;;15.95;6.00;;;;;;;18.00;77.92;101076.17;1877370;76;21455;-61
2022/06/03 03:43:46;;;;;;;16.20;4.65;;;;;;;18.01;78.14;101072.54;1877401;76;21036;-61
2022/06/03 03:46:39;;;;;;;10.93;5.03;;;;;;;18.03;78.09;101077.29;1818353;76;21572;-62
2022/06/03 03:49:30;;;;;;;17.42;5.33;;;;;;;18.05;78.13;101077.19;1877318;76;21479;-62
2022/06/03 03:52:21;;;;;;;12.33;5.78;;;;;;;18.10;77.84;101079.94;1875202;76;21556;-62
2022/06/03 03:55:28;;;;;;;13.10;5.67;;;;;;;18.17;77.79;101082.19;1868041;76;21463;-63
2022/06/03 03:57:59;;;;;;;9.38;5.20;;;;;;;18.24;77.49;101081.70;1877262;76;21099;-63
2022/06/03 04:00:46;;;;;;;12.55;5.00;;;;;;;18.32;77.19;101083.38;1875195;76;21596;-63
2022/06/03 04:03:26;;;;;;;6.67;4.10;;;;;;;18.39;77.13;101088.30;1877322;76;21044;-63
2022/06/03 04:06:13;;;;;;;13.48;5.28;;;;;;;18.38;77.23;101104.77;1876617;76;21052;-63
2022/06/03 04:09:04;;;;;;;10.40;6.35;;;;;;;18.43;77.05;101104.48;1876870;76;21053;-63
2022/06/03 04:12:09;;;;;;;9.78;5.28;;;;;;;18.51;76.80;101100.33;1877282;76;21096;-63
2022/06/03 04:14:48;;;;;;;14.63;5.45;;;;;;;18.59;76.57;101094.97;1877335;76;21110;-62
2022/06/03 04:17:54;;;;;;;11.03;4.47;;;;;;;18.66;76.50;101090.93;1873754;76;21114;-62
2022/06/03 04:20:43;;;;;;;13.20;5.50;;;;;;;18.72;76.36;101107.87;1877286;76;21041;-62
2022/06/03 04:23:40;;;;;;;13.38;5.10;;;;;;;18.78;76.35;101120.78;1839694;77;21070;-63
2022/06/03 04:26:39;;;;;;;8.93;4.75;;;;;;;18.85;76.33;101131.91;1840364;78;21137;-62
2022/06/03 04:29:37;;;;;;;13.80;5.45;;;;;;;18.95;76.25;101132.16;1869498;76;21131;-62
2022/06/03 04:32:11;;;;;;;10.60;5.58;;;;;;;19.00;76.26;101132.71;1868777;77;21519;-64
2022/06/03 04:35:17;;;;;;;14.80;5.55;;;;;;;19.06;76.12;101135.80;1868799;77;21044;-61
2022/06/03 04:37:54;;;;;;;9.65;4.75;;;;;;;19.14;76.08;101145.94;1868761;77;21088;-61
2022/06/03 04:40:31;;;;;;;13.20;5.00;;;;;;;19.23;75.89;101158.66;1868330;76;21057;-62
2022/06/03 04:43:14;;;;;;;10.82;5.05;;;;;;;19.29;75.65;101150.24;1868807;77;21041;-62
2022/06/03 04:46:02;;;;;;;10.60;4.92;;;;;;;19.37;75.52;101157.72;1845763;77;21062;-62
2022/06/03 04:49:00;;;;;;;16.42;5.42;;;;;;;19.45;75.33;101150.50;1866775;76;21045;-65
2022/06/03 04:51:50;;;;;;;8.23;4.25;;;;;;;19.54;75.12;101139.66;1868686;77;21475;-63
2022/06/03 04:54:41;;;;;;;15.43;4.58;;;;;;;19.61;74.90;101139.11;1868862;77;21037;-64
2022/06/03 04:57:31;;;;;;;17.25;4.60;;;;;;;19.68;74.74;101143.55;1865676;77;21107;-63
2022/06/03 05:00:25;;;;;;;8.68;4.42;;;;;;;19.78;74.54;101155.80;1870303;75;21483;-62
2022/06/03 05:03:09;;;;;;;14.28;4.92;;;;;;;19.89;74.35;101155.87;1896131;75;21125;-63
2022/06/03 05:05:48;;;;;;;;;;;;;;;19.99;74.24;101154.27;1903918;75;21540;-63
2022/06/03 05:08:47;;;;;;;15.53;6.08;;;;;;;20.10;74.12;101146.78;1900999;75;20147;-62
2022/06/03 05:11:51;;;;;;;10.40;4.97;;;;;;;20.21;73.87;101147.34;1853274;75;21179;-62
2022/06/03 05:14:41;;;;;;;13.80;4.08;;;;;;;20.43;73.88;101154.14;1901135;75;21099;-63
2022/06/03 05:17:19;;;;;;;10.93;4.42;;;;;;;20.88;74.06;101156.67;1901218;75;21041;-62
2022/06/03 05:20:08;;;;;;;10.38;4.45;;;;;;;21.47;74.05;101151.72;1900493;75;21099;-62
2022/06/03 05:22:46;;;;;;;11.57;4.40;;;;;;;21.84;73.67;101148.33;1901144;75;21158;-61
2022/06/03 05:25:35;;;;;;;8.35;4.03;;;;;;;22.01;73.10;101147.45;1900763;75;21049;-61
2022/06/03 05:28:40;;;;;;;15.95;3.70;;;;;;;22.47;72.69;101146.41;1878112;75;21074;-61
2022/06/03 05:31:34;;;;;;;12.53;3.85;;;;;;;23.44;72.41;101134.16;1867250;77;21104;-61
2022/06/03 05:34:40;;;;;;;15.20;4.35;;;;;;;24.53;71.35;101131.20;1863875;77;21626;-61
2022/06/03 05:37:24;;;;;;;10.60;3.47;;;;;;;25.40;70.09;101123.99;1866037;76;21108;-61
2022/06/03 05:40:10;;;;;;;;;;;;;;;26.09;68.86;101121.31;1868142;76;21038;-60
2022/06/03 05:43:10;;;;;;;9.88;3.58;;;;;;;26.50;67.95;101125.77;1865293;77;20122;-60
2022/06/03 05:46:10;;;;;;;14.93;3.95;;;;;;;26.66;67.41;101126.97;1864375;76;21015;-60
2022/06/03 05:49:00;;;;;;;14.10;3.20;;;;;;;26.87;66.16;101126.14;1865206;77;21050;-59
2022/06/03 05:51:47;;;;;;;8.58;3.30;;;;;;;26.59;64.72;101116.73;1864725;77;21191;-59
2022/06/03 05:54:50;;;;;;;12.23;4.05;;;;;;;26.14;64.23;101121.72;1865261;76;21120;-59
2022/06/03 05:57:30;;;;;;;9.38;3.75;;;;;;;25.68;63.87;101112.72;1864190;77;21011;-58
2022/06/03 06:00:02;;;;;;;8.30;3.67;;;;;;;25.54;63.55;101115.91;1864998;76;21109;-58
2022/06/03 06:02:53;;;;;;;16.55;3.92;;;;;;;25.32;63.27;101112.58;1865173;77;21053;-58
2022/06/03 06:05:43;;;;;;;11.70;4.35;;;;;;;25.20;63.09;101104.30;1865252;77;21521;-57
2022/06/03 06:08:26;;;;;;;16.30;4.10;;;;;;;25.04;63.01;101099.52;1864726;77;21447;-62
2022/06/03 06:11:16;;;;;;;12.00;4.92;;;;;;;24.88;62.97;101101.48;1863381;77;21047;-63
2022/06/03 06:14:06;;;;;;;12.03;4.10;;;;;;;24.82;62.84;101104.73;1864908;77;21109;-62
2022/06/03 06:16:46;;;;;;;13.28;4.28;;;;;;;24.73;62.83;101102.90;1865249;77;21121;-62
2022/06/03 06:19:36;;;;;;;14.35;4.60;;;;;;;24.70;62.69;101091.06;1865271;76;21026;-63
2022/06/03 06:22:28;;;;;;;14.45;4.50;;;;;;;24.71;62.63;101091.42;1849095;77;21023;-59
2022/06/03 06:25:21;;;;;;;13.78;3.92;;;;;;;24.88;62.67;101079.06;1865370;76;21089;-61
2022/06/03 06:28:05;;;;;;;13.58;4.67;;;;;;;25.15;62.54;101080.98;1880159;75;21150;-60
2022/06/03 06:30:52;;;;;;;;;;;;;;;25.41;62.28;101082.04;1903717;75;21472;-64
2022/06/03 06:33:23;;;;;;;8.48;3.30;;;;;;;25.65;61.88;101091.95;1908302;75;20145;-65
2022/06/03 06:36:04;;;;;;;8.05;3.20;;;;;;;25.78;61.40;101093.78;1910120;75;21085;-62
2022/06/03 06:38:47;;;;;;;13.30;3.05;;;;;;;25.99;61.25;101092.22;1910015;75;21041;-62
2022/06/03 06:41:25;;;;;;;7.40;3.12;;;;;;;26.11;61.02;101099.08;1867899;75;21191;-61
2022/06/03 06:44:16;;;;;;;9.90;3.30;;;;;;;26.11;60.70;101094.19;1910124;75;21557;-62
2022/06/03 06:46:57;;;;;;;8.38;3.80;;;;;;;26.15;60.30;101092.88;1909612;75;21495;-62
2022/06/03 06:49:35;;;;;;;12.23;3.40;;;;;;;26.26;59.96;101083.70;1908963;75;21550;-62
2022/06/03 06:52:25;;;;;;;10.40;2.87;;;;;;;26.51;59.80;101086.98;1910081;75;21518;-62
2022/06/03 06:54:56;;;;;;;5.62;2.77;;;;;;;26.68;59.34;101089.84;1909640;75;21124;-62
2022/06/03 06:57:37;;;;;;;9.18;3.27;;;;;;;27.08;58.71;101093.85;1909928;75;21033;-61
2022/06/03 07:00:24;;;;;;;8.43;3.42;;;;;;;27.53;58.54;101094.95;1909912;75;21106;-61
2022/06/03 07:03:23;;;;;;;10.25;3.58;;;;;;;27.78;57.71;101090.13;1909974;75;21017;-61
2022/06/03 07:05:55;;;;;;;12.80;4.12;;;;;;;28.01;57.39;101080.42;1909291;75;21194;-60
2022/06/03 07:08:32;;;;;;;5.00;2.70;;;;;;;28.32;56.99;101075.74;1909958;75;21542;-60
2022/06/03 07:11:07;;;;;;;11.48;3.37;;;;;;;28.43;56.33;101075.41;1909727;75;21044;-60
2022/06/03 07:13:54;;;;;;;13.30;2.83;;;;;;;28.47;55.97;101071.34;1909830;75;21126;-62
2022/06/03 07:19:48;;;;;;;8.23;2.50;;;;;;;28.61;54.94;101076.63;1909981;75;21021;-62
2022/06/03 07:22:45;;;;;;;8.75;2.80;;;;;;;28.81;54.51;101088.45;1909915;75;21082;-62
2022/06/03 07:25:29;;;;;;;26.02;5.80;;;;;;;28.85;53.37;101096.59;1909982;75;21094;-60
2022/06/03 07:28:17;;;;;;;20.88;7.65;;;;;;;28.70;53.23;101100.51;1906803;75;21069;-61
2022/06/03 07:31:07;;;;;;;19.40;6.78;;;;;;;28.55;52.94;101115.24;1897588;75;21476;-61
2022/06/03 07:33:50;;;;;;;14.05;5.42;;;;;;;28.65;52.90;101119.97;1897715;75;21029;-62
2022/06/03 07:36:21;;;;;;;12.88;4.75;;;;;;;28.99;52.34;101127.56;1897667;75;21111;-61
2022/06/03 07:38:56;;;;;;;9.10;3.20;;;;;;;29.24;52.24;101119.76;1897933;75;21601;-62
2022/06/03 07:41:44;;;;;;;10.25;3.33;;;;;;;29.25;51.59;101134.16;1897635;75;21496;-62
2022/06/03 07:44:30;;;;;;;9.03;2.77;;;;;;;29.13;50.55;101144.50;1897620;75;21034;-61
2022/06/03 07:47:05;;;;;;;9.88;2.80;;;;;;;29.00;50.47;101142.30;1819470;78;21078;-61
2022/06/03 07:49:36;;;;;;;7.03;2.55;;;;;;;28.78;49.89;101143.84;1897595;75;21029;-62
2022/06/03 07:52:23;;;;;;;6.25;2.80;;;;;;;28.75;50.12;101137.40;1893323;75;21420;-62
2022/06/03 07:54:57;;;;;;;11.55;2.90;;;;;;;28.87;50.08;101133.34;1897259;75;21046;-62
2022/06/03 07:57:28;;;;;;;11.80;3.72;;;;;;;29.00;49.83;101136.05;1897662;75;21014;-62
2022/06/03 08:06:13;;;;;;;10.78;3.27;;;;;;;29.35;47.44;101169.24;1903490;74;21568;-61
2022/06/03 08:11:35;;;;;;;11.63;2.77;;;;;;;29.98;47.47;101162.92;1900015;75;21514;-62
2022/06/03 08:14:04;;;;;;;4.67;2.72;;;;;;;30.48;47.69;101162.15;1900020;75;21108;-59
2022/06/03 08:16:42;;;;;;;6.08;2.77;;;;;;;30.97;47.42;101159.08;1899863;75;21057;-60
2022/06/03 08:19:17;;;;;;;9.73;3.37;;;;;;;31.36;47.02;101158.52;1900007;75;21088;-59
2022/06/03 08:21:49;;;;;;;8.13;2.90;;;;;;;31.67;46.55;101147.97;1929254;74;21102;-59
2022/06/03 08:24:18;;;;;;;;;;;;;;;31.82;45.94;101148.82;1936252;74;21421;-59
2022/06/03 08:26:52;;;;;;;6.87;2.90;;;;;;;32.03;46.34;101145.32;1933650;74;20159;-60
2022/06/03 08:29:36;;;;;;;10.15;3.33;;;;;;;31.93;44.62;101146.97;1933470;74;21034;-58
2022/06/03 08:32:16;;;;;;;10.03;3.33;;;;;;;31.51;43.86;101147.15;1933231;74;21095;-61
2022/06/03 08:34:51;;;;;;;8.53;2.80;;;;;;;30.92;44.22;101145.18;1933414;74;21095;-61
2022/06/03 08:37:23;;;;;;;12.85;3.95;;;;;;;30.43;44.69;101138.75;1933435;74;21069;-62
2022/06/03 08:39:56;;;;;;;8.68;3.20;;;;;;;30.07;45.11;101130.32;1933487;74;21033;-57
2022/06/03 08:42:50;;;;;;;14.13;3.90;;;;;;;29.74;45.36;101115.03;1933417;74;21589;-62
2022/06/03 08:45:41;;;;;;;7.85;3.22;;;;;;;29.56;45.80;101112.53;1933336;74;21029;-66
2022/06/03 08:48:16;;;;;;;9.60;2.42;;;;;;;29.42;46.09;101116.00;1933628;74;21041;-65
2022/06/03 08:51:05;;;;;;;8.45;3.72;;;;;;;29.35;46.08;101115.84;1933282;74;21072;-64
2022/06/03 08:53:39;;;;;;;11.30;3.22;;;;;;;29.41;46.17;101118.36;1933675;74;21026;-61
2022/06/03 08:56:13;;;;;;;15.72;4.08;;;;;;;29.44;46.04;101114.79;1933174;74;21037;-63
2022/06/03 08:58:58;;;;;;;11.18;4.58;;;;;;;29.48;46.06;101113.93;1900209;75;21494;-64
2022/06/03 09:01:30;;;;;;;14.13;3.72;;;;;;;29.49;46.23;101110.18;1900223;75;21037;-64
2022/06/03 09:04:07;;;;;;;11.35;2.70;;;;;;;29.61;46.31;101107.95;1900180;75;21041;-64
2022/06/03 09:06:54;;;;;;;7.45;2.50;;;;;;;29.69;46.16;101105.70;1898566;75;21546;-64
2022/06/03 09:09:53;;;;;;;9.73;3.08;;;;;;;29.81;46.13;101113.83;1893538;76;21049;-64
2022/06/03 09:12:30;;;;;;;12.90;2.42;;;;;;;30.08;46.05;101117.06;1893536;75;21053;-64
2022/06/03 09:15:01;;;;;;;8.95;2.10;;;;;;;30.20;45.68;101109.68;1893423;76;21484;-64
2022/06/03 09:17:39;;;;;;;18.50;7.45;;;;;;;30.29;45.62;101113.72;1892091;75;21712;-64
2022/06/03 09:20:17;;;;;;;8.73;3.65;;;;;;;30.62;45.55;101119.77;1893511;76;21111;-64
2022/06/03 09:22:47;;;;;;;10.55;2.60;;;;;;;30.84;45.21;101119.41;1888319;75;21110;-64
2022/06/03 09:25:18;;;;;;;10.93;2.62;;;;;;;31.00;44.99;101115.70;1893620;76;21095;-65
2022/06/03 09:27:51;;;;;;;7.75;2.55;;;;;;;31.02;44.71;101113.64;1893634;76;21086;-64
2022/06/03 09:30:20;;;;;;;;;;;;;;;31.05;44.70;101110.56;1896317;76;21041;-64
2022/06/03 09:32:49;;;;;;;7.62;2.75;;;;;;;31.01;44.70;101106.53;1887509;75;20103;-64
2022/06/03 09:35:23;;;;;;;9.95;3.08;;;;;;;30.95;44.75;101111.33;1893541;76;21440;-64
2022/06/03 09:37:56;;;;;;;11.03;3.15;;;;;;;30.96;44.76;101115.75;1893543;76;21038;-64
2022/06/03 09:40:31;;;;;;;9.65;2.75;;;;;;;30.73;44.58;101115.78;1893521;76;21065;-64
2022/06/03 09:43:02;;;;;;;7.03;1.92;;;;;;;30.49;44.82;101120.88;1893596;76;21115;-64
2022/06/03 09:45:32;;;;;;;7.93;2.90;;;;;;;30.21;44.88;101109.16;1892432;75;21186;-64
2022/06/03 09:48:04;;;;;;;10.60;2.77;;;;;;;30.06;45.14;101101.47;1893501;76;21153;-64
2022/06/03 09:50:33;;;;;;;5.65;2.30;;;;;;;29.86;45.46;101097.83;1893604;76;21209;-64
2022/06/03 09:53:05;;;;;;;10.85;2.58;;;;;;;30.01;45.61;101100.14;1893657;76;21065;-64
2022/06/03 09:55:43;;;;;;;10.15;2.60;;;;;;;30.24;45.49;101106.09;1893146;75;21045;-64
2022/06/03 09:58:15;;;;;;;7.95;2.58;;;;;;;30.40;45.43;101105.17;1893655;76;21479;-64
2022/06/03 10:00:49;;;;;;;6.78;2.22;;;;;;;30.55;45.35;101108.78;1893666;76;21115;-64
2022/06/03 10:03:19;;;;;;;20.30;3.12;;;;;;;30.61;45.00;101112.63;1892842;75;21487;-64
2022/06/03 10:05:51;;;;;;;8.83;2.72;;;;;;;30.78;44.91;101108.77;1893447;76;21139;-64
2022/06/03 10:08:22;;;;;;;10.03;2.10;;;;;;;30.94;44.80;101102.86;1893813;76;21107;-64
2022/06/03 10:13:39;;;;;;;4.67;1.85;;;;;;;31.16;44.67;101097.86;1893547;76;21112;-64
2022/06/03 10:16:10;;;;;;;9.25;1.65;;;;;;;31.12;44.24;101096.55;1893637;75;21073;-64
2022/06/03 10:18:41;;;;;;;10.00;2.25;;;;;;;30.84;43.85;101091.36;1893527;76;21110;-64
2022/06/03 10:21:18;;;;;;;7.55;1.92;;;;;;;30.51;43.92;101084.37;1893541;76;21036;-63
2022/06/03 10:23:49;;;;;;;5.17;1.67;;;;;;;30.48;44.19;101090.67;1892865;75;21038;-63
2022/06/03 10:26:30;;;;;;;7.15;2.08;;;;;;;30.50;44.33;101092.70;1893545;75;21499;-64
2022/06/03 10:29:01;;;;;;;7.90;1.85;;;;;;;30.39;44.33;101094.80;1893634;76;21126;-64
2022/06/03 10:31:32;;;;;;;10.03;2.50;;;;;;;30.26;44.53;101098.61;1892202;75;21045;-63
2022/06/03 10:34:04;;;;;;;14.70;2.52;;;;;;;30.11;44.55;101096.34;1893095;76;21158;-64
2022/06/03 10:36:38;;;;;;;4.50;2.30;;;;;;;30.03;44.49;101100.80;1893736;76;21108;-64
2022/06/03 10:39:09;;;;;;;6.87;2.40;;;;;;;29.88;44.85;101101.73;1893610;76;21041;-63
2022/06/03 10:41:43;;;;;;;6.03;2.37;;;;;;;29.84;45.19;101102.59;1893567;76;21444;-63
2022/06/03 10:44:14;;;;;;;15.08;3.60;;;;;;;29.84;45.32;101098.52;1893492;76;21092;-64
2022/06/03 10:46:58;;;;;;;4.10;2.20;;;;;;;29.76;45.29;101104.01;1893207;75;21147;-64
2022/06/03 10:49:28;;;;;;;12.07;3.27;;;;;;;29.73;45.38;101094.82;1893601;76;21013;-64
2022/06/03 11:03:28;;;;;;;6.37;2.17;;;;;;;29.76;46.15;101080.42;1893340;76;21034;-63
2022/06/03 11:05:57;;;;;;;10.35;2.00;;;;;;;29.82;46.14;101086.52;1893688;75;21049;-62
2022/06/03 11:08:26;;;;;;;11.43;2.40;;;;;;;29.88;46.12;101087.67;1912283;75;21142;-62
2022/06/03 11:10:59;;;;;;;6.78;2.27;;;;;;;29.92;45.90;101083.56;1912396;75;21033;-62
2022/06/03 11:13:38;;;;;;;9.25;1.90;;;;;;;29.97;45.89;101077.09;1905663;75;21033;-62
2022/06/03 11:16:22;;;;;;;7.05;2.05;;;;;;;30.07;45.83;101084.16;1899643;75;21123;-62
2022/06/03 11:18:51;;;;;;;11.90;2.08;;;;;;;30.10;45.99;101084.65;1900064;75;21705;-62
2022/06/03 11:21:29;;;;;;;9.25;3.55;;;;;;;30.07;45.89;101082.80;1900036;75;21045;-63
2022/06/03 11:24:00;;;;;;;8.85;2.30;;;;;;;29.96;45.86;101080.81;1900160;75;21041;-63
2022/06/03 11:26:41;;;;;;;6.83;2.00;;;;;;;29.79;45.86;101088.73;1900027;75;21635;-63
2022/06/03 11:29:18;;;;;;;8.00;2.45;;;;;;;29.72;46.03;101093.14;1900120;75;21107;-62
2022/06/03 11:31:49;;;;;;;10.50;2.20;;;;;;;29.54;46.01;101096.10;1899218;75;21021;-62
2022/06/03 11:34:23;;;;;;;4.95;1.90;;;;;;;29.34;46.08;101097.86;1900057;75;21041;-62
2022/06/03 11:36:57;;;;;;;5.85;2.20;;;;;;;29.19;46.23;101096.38;1895276;75;21178;-63
2022/06/03 11:39:38;;;;;;;9.43;2.10;;;;;;;29.08;46.31;101100.78;1900063;75;21111;-63
2022/06/03 11:42:25;;;;;;;9.75;1.92;;;;;;;28.90;46.41;101096.07;1899051;75;21138;-63
2022/06/03 11:45:11;;;;;;;7.60;2.50;;;;;;;28.76;46.63;101092.20;1899671;75;21045;-63
2022/06/03 11:48:01;;;;;;;10.70;2.60;;;;;;;28.68;46.94;101097.09;1900268;75;21032;-63
2022/06/03 11:50:32;;;;;;;7.95;2.25;;;;;;;28.79;47.14;101098.13;1900043;75;21600;-62
2022/06/03 11:53:01;;;;;;;9.55;3.02;;;;;;;28.82;47.08;101100.48;1900059;75;21045;-62
2022/06/03 11:55:32;;;;;;;8.50;3.37;;;;;;;28.80;47.11;101098.97;1899937;75;21110;-62
2022/06/03 11:58:22;;;;;;;9.35;2.20;;;;;;;28.75;47.16;101098.63;1900118;75;21632;-63
2022/06/03 12:00:53;;;;;;;6.97;2.25;;;;;;;28.66;47.32;101089.65;1899971;75;21040;-62
2022/06/03 12:03:28;;;;;;;10.15;2.67;;;;;;;28.59;47.46;101088.63;1899594;75;21056;-62
2022/06/03 12:06:00;;;;;;;10.13;2.70;;;;;;;28.65;47.51;101083.91;1900110;75;21056;-62
2022/06/03 12:08:34;;;;;;;6.90;2.50;;;;;;;28.66;47.58;101083.75;1898917;75;21551;-62
2022/06/03 12:11:09;;;;;;;9.68;2.72;;;;;;;28.69;47.55;101087.45;1889456;75;21647;-62
2022/06/03 12:13:38;;;;;;;12.03;3.00;;;;;;;28.72;47.53;101088.98;1900066;75;21041;-62
2022/06/03 12:16:12;;;;;;;5.30;2.15;;;;;;;28.76;47.48;101084.91;1900005;75;21102;-62
2022/06/03 12:19:01;;;;;;;9.50;2.40;;;;;;;28.77;47.50;101074.39;1899868;75;21405;-62
2022/06/03 12:21:33;;;;;;;10.05;2.67;;;;;;;28.80;47.50;101074.06;1899985;75;21523;-62
2022/06/03 12:24:21;;;;;;;8.15;2.40;;;;;;;28.82;47.58;101061.19;1900011;75;21483;-62
2022/06/03 12:26:51;;;;;;;5.08;2.25;;;;;;;28.89;47.53;101062.70;1900000;75;21491;-62
2022/06/03 12:29:30;;;;;;;12.00;2.87;;;;;;;29.02;47.42;101060.82;1900078;75;21045;-62
2022/06/03 12:32:01;;;;;;;9.45;2.55;;;;;;;29.10;47.42;101063.50;1898757;75;21123;-62
2022/06/03 12:34:31;;;;;;;16.75;2.62;;;;;;;29.13;47.39;101065.03;1896784;75;21044;-62
2022/06/03 12:37:05;;;;;;;8.93;3.00;;;;;;;29.07;47.38;101061.16;1900001;75;21111;-63
2022/06/03 12:39:43;;;;;;;6.72;2.27;;;;;;;29.08;47.41;101066.38;1901116;75;21044;-62
2022/06/03 12:42:37;;;;;;;4.10;1.87;;;;;;;28.97;47.41;101065.39;1900091;75;21056;-62
2022/06/03 12:45:13;;;;;;;9.68;2.75;;;;;;;28.82;47.56;101053.05;1900075;75;21045;-63
2022/06/03 12:47:43;;;;;;;7.55;2.65;;;;;;;28.78;47.79;101057.66;1899727;75;21114;-63
2022/06/03 12:50:33;;;;;;;10.43;3.57;;;;;;;28.79;47.87;101071.03;1900279;75;21037;-63
2022/06/03 12:53:13;;;;;;;13.50;3.42;;;;;;;28.74;47.84;101069.34;1899959;75;21531;-63
2022/06/03 12:55:43;;;;;;;6.90;2.95;;;;;;;28.66;47.71;101056.66;1897661;75;21041;-62
2022/06/03 12:58:17;;;;;;;13.80;3.15;;;;;;;28.60;47.70;101055.13;1899931;75;21169;-63
2022/06/03 13:00:55;;;;;;;12.88;3.80;;;;;;;28.57;47.64;101049.55;1894742;75;21491;-62